Maldives Meteorological Service

METAR

Station
VRMM
METAR VRMM 231300Z 09023KT 9000 FEW018 FEW019CB SCT110 29/24 Q1010 CB NE NOSIG=
VRMH
METAR VRMH 231300Z 06011KT 8000 FEW018 BKN270 29/24 Q1010=
VRMK
METAR VRMK 231300Z 03011KT 9999 FEW018TCU BKN270 28/25 Q1010=
VRMT
METAR VRMT 231300Z 08006KT 9999 SCT018 FEW019CB 30/26 Q1009 CB N,NW=
VRMG
METAR VRMG 231300Z 07005KT 9999 FEW017 FEW018CB 30/25 Q1010 CB WNW TEMPO 6000 -TSRA=
Last Updated : 2020-02-23 17:58:51

SPECI

Station
VRMM
VRMH
VRMK
VRMT
VRMG
Last Updated : 2020-02-23 17:58:51